Latest Coastal Weather Observations for Dunalley

IDT60701

Issued at 9:11 am EST Monday 2 May 2016 (issued every 10 minutes, with the page automatically refreshed every 10 minutes)

About coastal observations | Map of coastal stations | Coastal observations for TAS | Marine services | Other Formats
Station Details ID: 094254 Name: DUNALLEY (STROUD POINT) Lat: -42.90 Lon: 147.79 Height: 12.43 m
Data from the previous 72 hours. | See also: Recent months at Dunalley
Date/Time
EST
Temp

°C
Wind Pressure Rain
since 9am
mm
Weather Cloud Vis
km
Sea
Height
m
Swell
Dir
 
Speed
knots
Gust
knots
hPa Trend Height
m
Period
s
Dir
02/09:00am 11.9 NW 10 15 1002.6 - 10.0 - - - - - - -
02/08:30am 11.4 NNW 3 8 1002.9 - 10.0 - - - - - - -
02/08:00am 11.1 NNW 5 9 1002.8 - 10.0 - - - - - - -
02/07:30am 10.5 NW 12 18 1002.6 - 10.0 - - - - - - -
02/07:00am 10.5 NW 10 14 1002.5 - 10.0 - - - - - - -
02/06:30am 10.0 NW 7 12 1002.6 - 10.0 - - - - - - -
02/06:00am 10.0 NW 11 18 1002.8 - 10.0 - - - - - - -
02/05:30am 9.6 NW 11 15 1002.6 - 10.0 - - - - - - -
02/05:00am 9.9 NW 8 13 1002.4 - 10.0 - - - - - - -
02/04:30am 9.8 NW 11 17 1002.2 - 10.0 - - - - - - -
02/04:00am 9.9 WNW 15 21 1001.8 - 10.0 - - - - - - -
02/03:30am 10.4 WNW 17 25 1001.9 - 10.0 - - - - - - -
02/03:00am 9.7 WNW 14 20 1001.9 - 10.0 - - - - - - -
02/02:30am 9.8 WNW 12 16 1001.7 - 10.0 - - - - - - -
02/02:00am 10.1 W 15 21 1001.5 - 10.0 - - - - - - -
02/01:30am 9.9 WNW 12 18 1001.5 - 10.0 - - - - - - -
02/01:00am 9.8 W 13 18 1001.2 - 10.0 - - - - - - -
02/12:30am 9.7 WNW 12 16 1001.0 - 10.0 - - - - - - -
02/12:20am 10.5 WSW 22 28 1001.0 - 10.0 - - - - - - -
02/12:00am 11.2 WSW 27 31 1000.2 - 10.0 - - - - - - -
 
Date/Time
EST
Temp

°C
Wind Pressure Rain
since 9am
mm
Weather Cloud Vis
km
Sea
Height
m
Swell
Dir
 
Speed
knots
Gust
knots
hPa Trend Height
m
Period
s
Dir
01/11:30pm 11.3 WSW 27 32 1000.0 - 10.0 - - - - - - -
01/11:00pm 11.1 WSW 32 38 999.4 - 10.0 - - - - - - -
01/10:30pm 11.4 WSW 32 41 999.2 - 10.0 - - - - - - -
01/10:00pm 11.6 W 33 43 998.8 - 10.0 - - - - - - -
01/09:30pm 11.7 WSW 35 42 997.4 - 10.0 - - - - - - -
01/09:00pm 11.5 W 38 46 996.8 - 10.0 Recent precip. - - - - - -
01/08:30pm 11.6 W 36 43 995.9 - 9.8 - - - - - - -
01/08:00pm 11.8 W 35 41 995.2 - 9.8 - - - - - - -
01/07:30pm 11.7 W 33 39 994.0 - 9.8 - - - - - - -
01/07:00pm 11.7 W 38 47 992.9 - 9.6 - - - - - - -
01/06:30pm 12.2 W 37 49 991.3 - 9.0 - - - - - - -
01/06:28pm 11.9 W 37 49 991.2 - 9.0 - - - - - - -
01/06:06pm 12.5 W 27 44 990.3 - 8.0 - - - - - - -
01/06:05pm 12.5 WNW 26 44 990.3 - 7.8 - - - - - - -
01/06:00pm 12.4 WNW 22 33 990.2 - 7.8 Rain - - - - - -
01/05:49pm 12.5 WNW 17 34 989.8 - 7.2 - - - - - - -
01/05:30pm 12.6 WNW 11 19 989.2 - 6.2 - - - - - - -
01/05:00pm 13.7 SW 14 17 988.4 - 5.0 - - - - - - -
01/04:30pm 14.9 SW 5 13 987.7 - 4.2 - - - - - - -
01/04:00pm 14.6 SW 1 3 987.4 - 4.2 - - - - - - -
01/03:30pm 15.1 CALM 0 0 987.3 - 4.2 - - - - - - -
01/03:00pm 14.8 SW 2 3 987.3 - 4.2 - - - - - - -
01/02:30pm 14.7 SW 4 5 987.6 - 4.2 - - - - - - -
01/02:00pm 15.1 SW 3 5 988.3 - 4.2 - - - - - - -
01/01:30pm 14.6 WSW 8 11 988.9 - 4.2 - - - - - - -
01/01:00pm 14.8 N 4 13 988.9 - 4.2 - - - - - - -
01/12:52pm 14.3 N 5 14 988.9 - 4.2 - - - - - - -
01/12:30pm 14.1 N 18 29 990.9 - 4.2 - - - - - - -
01/12:26pm 15.5 N 14 29 990.9 - 4.2 - - - - - - -
01/12:25pm 15.8 N 13 25 990.8 - 4.2 - - - - - - -
01/12:00pm 16.4 SW 5 11 991.1 - 4.2 - - - - - - -
01/11:30am 14.6 S 3 4 992.4 - 4.2 - - - - - - -
01/11:00am 13.9 S 5 7 993.1 - 4.2 - - - - - - -
01/10:30am 13.8 NW 1 3 993.7 - 4.0 - - - - - - -
01/10:00am 13.7 NW 9 14 995.2 - 3.6 - - - - - - -
01/09:30am 13.5 NW 11 16 995.8 - 3.2 - - - - - - -
01/09:00am 15.8 WNW 10 15 996.2 - 0.6 Recent precip. - - - - - -
01/08:30am 16.6 NE 15 19 996.0 - 0.6 - - - - - - -
01/08:11am 17.3 NNE 17 28 996.9 - 0.4 - - - - - - -
01/08:00am 17.3 NNE 21 27 996.5 - 0.2 - - - - - - -
01/07:30am 16.6 NNE 18 23 996.6 - 0.2 - - - - - - -
01/07:00am 15.4 NE 15 16 997.5 - 0.2 - - - - - - -
01/06:30am 15.6 NE 10 14 998.4 - 0.2 - - - - - - -
01/06:00am 15.6 NNE 9 11 999.5 - 0.2 - - - - - - -
01/05:30am 15.3 NE 13 17 1000.2 - 0.2 - - - - - - -
01/05:00am 15.3 NE 8 10 1000.8 - 0.2 - - - - - - -
01/04:30am 15.3 NE 10 13 1001.5 - 0.2 - - - - - - -
01/04:00am 15.1 NNE 7 11 1001.7 - 0.2 - - - - - - -
01/03:30am 15.3 NNE 8 9 1002.5 - 0.2 - - - - - - -
01/03:00am 15.8 NE 11 14 1002.5 - 0.2 - - - - - - -
01/02:30am 16.1 NE 14 16 1003.2 - 0.2 - - - - - - -
01/02:00am 16.3 NE 11 15 1004.2 - 0.2 - - - - - - -
01/01:30am 17.1 NNE 13 16 1004.9 - 0.0 - - - - - - -
01/01:00am 17.4 NNE 11 16 1005.5 - 0.0 - - - - - - -
01/12:30am 17.9 NE 13 18 1005.7 - 0.0 - - - - - - -
01/12:00am 18.4 NNE 11 17 1005.9 - 0.0 - - - - - - -
 
Date/Time
EST
Temp

°C
Wind Pressure Rain
since 9am
mm
Weather Cloud Vis
km
Sea
Height
m
Swell
Dir
 
Speed
knots
Gust
knots
hPa Trend Height
m
Period
s
Dir
30/11:30pm 18.8 NNE 12 22 1006.4 - 0.0 - - - - - - -
30/11:00pm 17.5 NE 11 13 1006.8 - 0.0 - - - - - - -
30/10:30pm 17.0 NE 10 13 1007.2 - 0.0 - - - - - - -
30/10:00pm 17.7 NNE 10 16 1007.5 - 0.0 - - - - - - -
30/09:30pm 17.6 NNE 13 18 1007.6 - 0.0 - - - - - - -
30/09:00pm 17.0 NNE 12 17 1007.6 - 0.0 - - - - - - -
30/08:30pm 17.4 NNE 14 18 1007.4 - 0.0 - - - - - - -
30/08:00pm 17.7 N 15 19 1007.5 - 0.0 - - - - - - -
30/07:30pm 17.9 N 12 19 1007.8 - 0.0 - - - - - - -
30/07:00pm 17.8 N 10 14 1007.5 - 0.0 - - - - - - -
30/06:30pm 18.2 NNE 13 19 1007.4 - 0.0 - - - - - - -
30/06:00pm 18.5 NNE 13 26 1007.4 - 0.0 - - - - - - -
30/05:54pm 18.9 NE 15 26 1007.3 - 0.0 - - - - - - -
30/05:30pm 19.1 NNE 14 20 1007.1 - 0.0 - - - - - - -
30/05:00pm 19.3 NE 11 16 1007.0 - 0.0 - - - - - - -
30/04:30pm 19.7 NNE 9 11 1007.2 - 0.0 - - - - - - -
30/04:00pm 20.9 N 6 9 1007.3 - 0.0 - - - - - - -
30/03:30pm 20.7 N 7 11 1007.4 - 0.0 - - - - - - -
30/03:00pm 21.3 N 11 17 1007.4 - 0.0 - - - - - - -
30/02:30pm 21.9 NNE 13 22 1007.5 - 0.0 - - - - - - -
30/02:00pm 22.0 NNE 15 23 1007.6 - 0.0 - - - - - - -
30/01:30pm 21.6 N 14 21 1007.8 - 0.0 - - - - - - -
30/01:00pm 21.5 N 9 15 1008.2 - 0.0 - - - - - - -
30/12:30pm 21.4 N 8 14 1008.7 - 0.0 - - - - - - -
30/12:00pm 21.7 N 9 15 1009.4 - 0.0 - - - - - - -
30/11:30am 21.1 N 9 14 1009.9 - 0.0 - - - - - - -
30/11:00am 20.7 NNE 5 10 1010.5 - 0.0 - - - - - - -
30/10:30am 19.3 N 7 10 1010.8 - 0.0 - - - - - - -
30/10:00am 18.3 N 6 7 1011.3 - 0.0 - - - - - - -
30/09:30am 17.6 N 4 7 1011.7 - 0.0 - - - - - - -
30/09:00am 16.8 N 7 12 1012.0 - 1.0 - - - - - - -
30/08:30am 16.0 NNW 6 9 1011.9 - 1.0 - - - - - - -
30/08:00am 14.9 NNW 3 6 1011.6 - 1.0 - - - - - - -
30/07:30am 14.1 NNW 4 7 1011.6 - 1.0 - - - - - - -
30/07:00am 13.9 NNW 4 7 1011.4 - 1.0 - - - - - - -
30/06:30am 14.1 NNW 9 13 1011.1 - 1.0 - - - - - - -
30/06:00am 14.1 NNW 7 9 1011.2 - 1.0 - - - - - - -
30/05:30am 14.3 NNW 7 10 1011.0 - 1.0 - - - - - - -
30/05:00am 14.0 NW 2 5 1011.0 - 1.0 - - - - - - -
30/04:30am 14.3 NW 4 7 1010.7 - 1.0 - - - - - - -
30/04:00am 13.8 NW 3 5 1010.5 - 1.0 - - - - - - -
30/03:30am 13.8 NW 4 5 1010.3 - 1.0 - - - - - - -
30/03:00am 13.8 NW 3 5 1010.3 - 1.0 - - - - - - -
30/02:30am 14.3 NW 2 3 1010.4 - 1.0 - - - - - - -
30/02:00am 14.8 NW 2 2 1010.3 - 1.0 - - - - - - -
30/01:30am 15.2 NW 5 9 1010.1 - 1.0 - - - - - - -
30/01:00am 15.0 NNW 3 5 1010.0 - 1.0 - - - - - - -
30/12:30am 15.9 NW 4 8 1009.9 - 1.0 - - - - - - -
30/12:00am 14.9 NW 3 6 1009.8 - 1.0 - - - - - - -
 
Date/Time
EST
Temp

°C
Wind Pressure Rain
since 9am
mm
Weather Cloud Vis
km
Sea
Height
m
Swell
Dir
 
Speed
knots
Gust
knots
hPa Trend Height
m
Period
s
Dir
29/11:30pm 15.8 NW 6 9 1009.8 - 1.0 - - - - - - -
29/11:00pm 16.1 NNW 9 12 1010.0 - 1.0 - - - - - - -
29/10:30pm 16.4 NNW 10 13 1010.0 - 1.0 - - - - - - -
29/10:00pm 16.4 NNW 8 11 1010.0 - 1.0 - - - - - - -
29/09:30pm 16.6 NNW 3 7 1009.9 - 1.0 - - - - - - -
29/09:00pm 16.6 NNW 4 7 1009.4 - 1.0 - - - - - - -
29/08:30pm 17.0 N 3 5 1008.8 - 1.0 - - - - - - -
29/08:00pm 17.7 N 3 6 1008.7 - 1.0 - - - - - - -
29/07:30pm 17.2 N 7 14 1008.6 - 1.0 - - - - - - -
29/07:00pm 17.2 N 8 14 1008.8 - 1.0 - - - - - - -
29/06:30pm 16.7 NNW 8 13 1008.9 - 1.0 - - - - - - -
29/06:00pm 17.2 NNW 13 21 1008.9 - 0.4 Rain - - - - - -
29/05:30pm 18.0 NNW 11 18 1008.7 - 0.2 - - - - - - -
29/05:00pm 18.9 NNW 8 15 1008.5 - 0.0 - - - - - - -
29/04:30pm 19.4 N 16 25 1008.2 - 0.0 - - - - - - -
29/04:18pm 19.8 N 15 27 1008.2 - 0.0 - - - - - - -
29/04:00pm 19.6 N 11 17 1008.3 - 0.0 - - - - - - -
29/03:33pm 20.2 N 15 27 1008.2 - 0.0 - - - - - - -
29/03:30pm 20.2 N 14 27 1008.2 - 0.0 - - - - - - -
29/03:00pm 20.3 NNE 9 15 1008.6 - 0.0 - - - - - - -
29/02:30pm 20.3 NNE 6 13 1008.8 - 0.0 - - - - - - -
29/02:00pm 19.4 NE 10 15 1008.8 - 0.0 - - - - - - -
29/01:30pm 19.6 NNE 13 17 1009.1 - 0.0 - - - - - - -
29/01:00pm 18.7 NE 14 19 1009.5 - 0.0 - - - - - - -
29/12:30pm 18.1 ENE 13 16 1010.2 - 0.0 - - - - - - -
29/12:00pm 18.4 NE 12 15 1010.9 - 0.0 - - - - - - -
29/11:30am 19.0 NNE 9 12 1011.6 - 0.0 - - - - - - -
29/11:00am 17.8 N 10 14 1012.2 - 0.0 - - - - - - -
29/10:30am 17.6 NNE 11 14 1012.7 - 0.0 - - - - - - -
29/10:00am 17.2 NNE 9 11 1013.2 - 0.0 - - - - - - -
29/09:30am 16.7 NNE 8 11 1014.2 - 0.0 - - - - - - -

Other Formats:

Comma delimited format used in spreadsheet applications
http://www.bom.gov.au/fwo/IDT60701/IDT60701.94951.axf

JavaScript Object Notation format (JSON) in row-major order
http://www.bom.gov.au/fwo/IDT60701/IDT60701.94951.json